Time;durP1;ratioP1;P1;durP2;ratioP2;P2;SDS_P1;SDS_P2;PMS_P1;PMS_P2;Temp;Humidity;BMP_temperature;BMP_pressure;BME280_temperature;BME280_humidity;BME280_pressure;Samples;Min_cycle;Max_cycle;Signal;HPM_P1;HPM_P2
2023/04/15 04:49:12;;;;;;;1.90;1.60;;;;;;;;;;6271202;22;20102;-59
2023/04/15 04:51:39;;;;;;;3.93;2.27;;;;;;;;;;6275041;22;20339;-58
2023/04/15 04:54:06;;;;;;;2.40;1.93;;;;;;;;;;6275924;22;20003;-58
2023/04/15 04:56:33;;;;;;;1.37;1.17;;;;;;;;;;6275586;22;20103;-58
2023/04/15 04:59:00;;;;;;;2.90;1.47;;;;;;;;;;6275728;22;20003;-58
2023/04/15 05:01:27;;;;;;;1.50;1.20;;;;;;;;;;6273581;22;20039;-58
2023/04/15 05:03:54;;;;;;;1.43;1.10;;;;;;;;;;6269608;22;20370;-58
2023/04/15 05:06:21;;;;;;;2.00;1.77;;;;;;;;;;6242624;22;20015;-58
2023/04/15 05:08:48;;;;;;;4.07;2.20;;;;;;;;;;6269285;22;20079;-58
2023/04/15 05:11:15;;;;;;;1.90;1.53;;;;;;;;;;6270609;22;20004;-58
2023/04/15 05:13:41;;;;;;;2.23;1.60;;;;;;;;;;6248569;22;20061;-58
2023/04/15 05:16:08;;;;;;;1.60;1.20;;;;;;;;;;6275702;22;20000;-58
2023/04/15 05:18:35;;;;;;;2.30;1.70;;;;;;;;;;6248889;22;20095;-58
2023/04/15 18:04:30;;;;;;;1.92;1.30;;;;;;;;;;6240635;23;20026;-60
2023/04/15 18:06:58;;;;;;;1.95;1.42;;;;;;;;;;6239995;23;20008;-61
2023/04/15 18:09:24;;;;;;;2.60;1.45;;;;;;;;;;6240810;23;20099;-61
2023/04/15 18:11:53;;;;;;;1.77;1.15;;;;;;;;;;6246480;23;20008;-61
2023/04/15 18:14:20;;;;;;;2.92;1.83;;;;;;;;;;6246555;23;20050;-61
2023/04/15 18:16:48;;;;;;;6.15;1.83;;;;;;;;;;6246166;23;20026;-61
2023/04/15 18:19:15;;;;;;;5.20;1.75;;;;;;;;;;6246139;23;20016;-61
2023/04/15 18:21:42;;;;;;;1.45;1.17;;;;;;;;;;6245242;23;20427;-61
2023/04/15 18:24:08;;;;;;;1.63;1.17;;;;;;;;;;6240238;23;20004;-61
2023/04/15 18:26:35;;;;;;;2.28;1.33;;;;;;;;;;6240305;23;20008;-62
2023/04/15 18:29:02;;;;;;;1.65;1.13;;;;;;;;;;6213667;23;20684;-61
2023/04/15 18:31:29;;;;;;;1.73;0.95;;;;;;;;;;6240022;23;20015;-61
2023/04/15 18:49:13;;;;;;;3.28;1.80;;;;;;;;;;6239908;23;20217;-62
2023/04/15 18:51:40;;;;;;;5.03;1.52;;;;;;;;;;6240113;23;20031;-61
2023/04/15 18:54:07;;;;;;;3.55;1.70;;;;;;;;;;6241108;23;20073;-61
2023/04/15 18:56:33;;;;;;;1.55;1.13;;;;;;;;;;6245902;23;20000;-62
2023/04/15 18:59:00;;;;;;;14.57;1.90;;;;;;;;;;6245987;23;20305;-61
2023/04/15 19:01:27;;;;;;;5.80;1.50;;;;;;;;;;6246015;23;20001;-61
2023/04/15 19:03:54;;;;;;;2.40;1.30;;;;;;;;;;6245963;23;20443;-62
2023/04/15 19:06:21;;;;;;;2.45;1.35;;;;;;;;;;6217065;23;20004;-61
2023/04/15 19:08:47;;;;;;;3.63;1.90;;;;;;;;;;6239712;23;20020;-61
2023/04/15 19:11:14;;;;;;;1.80;1.55;;;;;;;;;;6239662;23;20004;-62
2023/04/15 19:13:41;;;;;;;2.65;1.50;;;;;;;;;;6239857;23;20138;-61
2023/04/15 19:16:08;;;;;;;2.50;1.48;;;;;;;;;;6239820;23;20004;-61
2023/04/15 19:18:34;;;;;;;2.00;1.27;;;;;;;;;;6245656;23;20004;-61
2023/04/15 19:21:01;;;;;;;5.28;1.75;;;;;;;;;;6245876;23;20058;-61
2023/04/15 19:23:28;;;;;;;2.15;1.50;;;;;;;;;;6245501;23;20083;-61
2023/04/15 19:25:57;;;;;;;4.45;1.90;;;;;;;;;;6245317;23;20074;-61
2023/04/15 19:28:25;;;;;;;2.97;2.03;;;;;;;;;;6218304;23;20027;-61
2023/04/15 19:30:52;;;;;;;1.48;1.27;;;;;;;;;;6239448;23;20054;-61
2023/04/15 19:33:19;;;;;;;2.08;1.42;;;;;;;;;;6239504;23;20004;-61
2023/04/15 19:35:48;;;;;;;3.90;2.00;;;;;;;;;;6239563;23;20427;-61
2023/04/15 19:38:15;;;;;;;4.75;1.80;;;;;;;;;;6239794;23;20004;-61
2023/04/15 19:40:42;;;;;;;2.90;1.65;;;;;;;;;;6244400;23;20034;-61
2023/04/15 19:43:09;;;;;;;1.88;1.27;;;;;;;;;;6245770;23;20010;-61
2023/04/15 20:00:53;;;;;;;15.13;1.58;;;;;;;;;;6239696;23;20042;-61
2023/04/15 20:03:22;;;;;;;7.40;2.08;;;;;;;;;;6245223;23;20004;-61
2023/04/15 20:05:49;;;;;;;2.67;1.55;;;;;;;;;;6244717;23;20004;-61
2023/04/15 20:08:16;;;;;;;1.75;1.00;;;;;;;;;;6245022;23;20023;-61
2023/04/15 20:10:43;;;;;;;5.32;1.45;;;;;;;;;;6245396;23;20386;-62
2023/04/15 20:13:09;;;;;;;2.15;1.33;;;;;;;;;;6244709;23;20004;-62
2023/04/15 20:15:36;;;;;;;1.67;1.30;;;;;;;;;;6238693;23;20074;-62
2023/04/15 20:18:03;;;;;;;2.10;1.23;;;;;;;;;;6239104;23;20075;-60
2023/04/15 20:20:29;;;;;;;2.15;1.30;;;;;;;;;;6239092;23;20004;-60
2023/04/15 20:22:59;;;;;;;1.92;1.17;;;;;;;;;;6212516;23;20023;-62
2023/04/15 20:25:26;;;;;;;6.93;1.95;;;;;;;;;;6244797;23;20391;-62
2023/04/15 20:27:53;;;;;;;1.63;1.17;;;;;;;;;;6244896;23;20016;-60
2023/04/15 20:30:19;;;;;;;4.28;1.92;;;;;;;;;;6245206;23;20000;-60
2023/04/15 20:32:46;;;;;;;3.75;2.05;;;;;;;;;;6244904;23;20309;-61
2023/04/15 20:35:13;;;;;;;3.28;1.85;;;;;;;;;;6245195;23;20004;-60
2023/04/15 20:37:39;;;;;;;3.22;1.83;;;;;;;;;;6239126;23;20004;-60
2023/04/15 20:40:06;;;;;;;7.18;1.77;;;;;;;;;;6239044;23;20000;-61
2023/04/15 20:42:33;;;;;;;2.92;1.25;;;;;;;;;;6238658;23;20004;-61
2023/04/15 20:45:00;;;;;;;2.72;1.45;;;;;;;;;;6239103;23;20004;-61
2023/04/15 20:47:30;;;;;;;3.63;1.77;;;;;;;;;;6243847;23;20000;-61
2023/04/15 20:49:56;;;;;;;3.80;2.08;;;;;;;;;;6244935;23;20008;-61
2023/04/15 20:52:23;;;;;;;3.45;1.60;;;;;;;;;;6245060;23;20004;-62
2023/04/15 20:54:50;;;;;;;2.55;1.70;;;;;;;;;;6245068;23;20008;-61
2023/04/15 20:57:17;;;;;;;5.07;1.50;;;;;;;;;;6245177;23;20008;-61
2023/04/15 20:59:43;;;;;;;2.03;1.48;;;;;;;;;;6239163;23;20027;-61
2023/04/15 21:02:10;;;;;;;2.22;1.35;;;;;;;;;;6239108;23;20010;-61
2023/04/15 21:04:37;;;;;;;1.48;1.17;;;;;;;;;;6238972;23;20062;-61
2023/04/15 21:07:04;;;;;;;4.95;1.92;;;;;;;;;;6238493;23;20023;-61
2023/04/15 21:09:31;;;;;;;2.92;2.03;;;;;;;;;;6243210;23;20475;-61
2023/04/15 21:11:57;;;;;;;2.42;1.65;;;;;;;;;;6244920;23;20336;-61
2023/04/15 21:14:24;;;;;;;1.92;1.30;;;;;;;;;;6244929;23;20011;-60
2023/04/15 21:16:51;;;;;;;2.38;1.30;;;;;;;;;;6244726;23;20130;-61
2023/04/15 21:19:17;;;;;;;4.40;1.92;;;;;;;;;;6217690;23;20010;-61
2023/04/15 21:21:44;;;;;;;2.05;1.33;;;;;;;;;;6240681;23;20423;-61
2023/04/15 21:24:11;;;;;;;3.60;1.88;;;;;;;;;;6238419;23;20048;-60
2023/04/15 21:26:37;;;;;;;1.80;1.23;;;;;;;;;;6211882;23;20008;-61
2023/04/15 21:29:04;;;;;;;1.95;1.20;;;;;;;;;;6238899;23;20008;-61
2023/04/15 21:31:31;;;;;;;3.03;1.73;;;;;;;;;;6243631;23;20039;-60
2023/04/15 21:33:58;;;;;;;2.55;1.20;;;;;;;;;;6246638;23;20000;-61
2023/04/15 21:36:25;;;;;;;2.08;1.40;;;;;;;;;;6246753;23;20301;-61
2023/04/15 21:38:52;;;;;;;1.65;1.10;;;;;;;;;;6246633;23;20004;-61
2023/04/15 21:41:19;;;;;;;1.58;1.17;;;;;;;;;;6246684;23;20450;-61
2023/04/15 21:43:46;;;;;;;1.80;1.23;;;;;;;;;;6243476;23;20027;-61
2023/04/15 21:46:12;;;;;;;2.10;1.42;;;;;;;;;;6240581;23;20058;-61
2023/04/15 21:48:39;;;;;;;1.65;1.23;;;;;;;;;;6240470;23;20012;-61
2023/04/15 21:51:06;;;;;;;1.88;1.27;;;;;;;;;;6240726;23;20493;-61
2023/04/15 21:53:32;;;;;;;5.40;1.60;;;;;;;;;;6242745;23;20014;-61
2023/04/15 21:55:59;;;;;;;1.92;1.33;;;;;;;;;;6245938;23;20007;-61
2023/04/15 21:58:26;;;;;;;2.30;1.15;;;;;;;;;;6246349;23;20008;-61
2023/04/15 22:00:57;;;;;;;1.77;1.35;;;;;;;;;;6246394;23;20008;-61
2023/04/15 22:03:24;;;;;;;4.00;1.65;;;;;;;;;;6246563;23;20008;-60
2023/04/15 22:05:51;;;;;;;2.05;1.45;;;;;;;;;;6243725;23;20004;-61
2023/04/15 22:08:18;;;;;;;3.65;1.50;;;;;;;;;;6240928;23;20094;-61
2023/04/15 22:10:44;;;;;;;2.35;1.60;;;;;;;;;;6240264;23;20010;-61
2023/04/15 22:13:12;;;;;;;3.05;1.38;;;;;;;;;;6239950;23;20004;-61
2023/04/15 22:15:38;;;;;;;7.40;1.88;;;;;;;;;;6241484;23;20000;-61
2023/04/15 22:18:05;;;;;;;10.52;1.38;;;;;;;;;;6219397;23;20090;-61
2023/04/15 22:20:32;;;;;;;1.33;0.93;;;;;;;;;;6246811;23;20066;-60
2023/04/15 22:22:59;;;;;;;20.02;1.83;;;;;;;;;;6246755;23;20004;-61
2023/04/15 22:25:25;;;;;;;2.40;1.42;;;;;;;;;;6246171;23;20068;-61
2023/04/15 22:27:52;;;;;;;3.15;1.23;;;;;;;;;;6244588;23;20014;-61
2023/04/15 22:30:19;;;;;;;1.42;1.10;;;;;;;;;;6240332;23;20005;-61
2023/04/15 22:32:46;;;;;;;2.35;1.17;;;;;;;;;;6240211;23;20017;-61
2023/04/15 22:35:12;;;;;;;4.07;1.25;;;;;;;;;;6213350;23;20015;-61
2023/04/15 22:37:39;;;;;;;1.00;0.73;;;;;;;;;;6240525;23;20507;-61
2023/04/15 22:40:06;;;;;;;2.38;1.10;;;;;;;;;;6245981;23;20038;-61
2023/04/15 22:42:33;;;;;;;3.05;1.95;;;;;;;;;;6245743;23;20027;-61
2023/04/15 22:45:00;;;;;;;2.25;1.27;;;;;;;;;;6246088;23;20050;-61
2023/04/15 22:47:26;;;;;;;8.88;1.38;;;;;;;;;;6246078;23;20500;-61
2023/04/15 22:49:53;;;;;;;1.63;1.20;;;;;;;;;;6245402;23;20007;-61
2023/04/15 22:52:23;;;;;;;7.60;1.50;;;;;;;;;;6240178;23;20085;-62
2023/04/15 22:54:49;;;;;;;2.03;1.27;;;;;;;;;;6240330;23;20000;-61
2023/04/15 22:57:16;;;;;;;2.13;1.30;;;;;;;;;;6239941;23;20004;-61
2023/04/15 22:59:43;;;;;;;1.88;1.30;;;;;;;;;;6239733;23;20004;-61
2023/04/15 23:02:09;;;;;;;2.25;1.23;;;;;;;;;;6245394;23;20457;-61
2023/04/15 23:04:36;;;;;;;1.85;1.20;;;;;;;;;;6245879;23;20035;-61
2023/04/15 23:07:03;;;;;;;2.42;1.48;;;;;;;;;;6245821;23;20008;-61
2023/04/15 23:09:30;;;;;;;6.22;2.28;;;;;;;;;;6245222;23;20011;-60
2023/04/15 23:11:56;;;;;;;8.93;2.08;;;;;;;;;;6245693;23;20008;-60
2023/04/15 23:14:24;;;;;;;3.13;2.10;;;;;;;;;;6239986;23;20099;-60
2023/04/15 23:16:51;;;;;;;4.03;2.22;;;;;;;;;;6239443;23;20069;-61
2023/04/15 23:19:18;;;;;;;9.98;2.05;;;;;;;;;;6239748;23;20470;-61
2023/04/15 23:21:45;;;;;;;4.05;2.22;;;;;;;;;;6240278;23;20012;-60
2023/04/15 23:24:12;;;;;;;11.77;3.20;;;;;;;;;;6244368;23;20000;-61
2023/04/15 23:26:39;;;;;;;4.32;2.30;;;;;;;;;;6245255;23;20095;-60
2023/04/15 23:29:07;;;;;;;2.10;1.67;;;;;;;;;;6244776;23;20020;-60
2023/04/15 23:31:34;;;;;;;7.15;2.33;;;;;;;;;;6245719;23;20058;-60
2023/04/15 23:34:01;;;;;;;2.53;1.95;;;;;;;;;;6245513;23;20028;-60
2023/04/15 23:36:27;;;;;;;5.35;3.80;;;;;;;;;;6240704;23;20004;-60
2023/04/15 23:38:54;;;;;;;8.05;4.72;;;;;;;;;;6239545;23;20011;-60
2023/04/15 23:41:21;;;;;;;10.05;4.68;;;;;;;;;;6239323;23;20008;-60
2023/04/15 23:43:48;;;;;;;7.93;4.90;;;;;;;;;;6239189;23;20004;-60
2023/04/15 23:46:15;;;;;;;9.80;5.20;;;;;;;;;;6242818;23;20035;-60
2023/04/15 23:48:42;;;;;;;7.10;4.28;;;;;;;;;;6245239;23;20019;-60
2023/04/15 23:51:09;;;;;;;7.45;4.40;;;;;;;;;;6245605;23;20008;-60
2023/04/15 23:53:35;;;;;;;12.18;3.55;;;;;;;;;;6245401;23;20379;-60
2023/04/15 23:56:02;;;;;;;4.38;2.72;;;;;;;;;;6218386;23;20012;-60
2023/04/15 23:58:29;;;;;;;4.20;3.00;;;;;;;;;;6241477;23;20055;-60
